Time;durP1;ratioP1;P1;durP2;ratioP2;P2;SDS_P1;SDS_P2;PMS_P1;PMS_P2;Temp;Humidity;BMP_temperature;BMP_pressure;BME280_temperature;BME280_humidity;BME280_pressure;Samples;Min_cycle;Max_cycle;Signal;HPM_P1;HPM_P2
2022/08/29 00:00:11;;;;;;;6.30;2.72;;;;;;;;;;5006240;28;20073;-63
2022/08/29 00:02:37;;;;;;;12.20;3.05;;;;;;;;;;5010313;28;20073;-64
2022/08/29 00:05:03;;;;;;;6.75;2.67;;;;;;;;;;5027998;28;20069;-63
2022/08/29 00:07:29;;;;;;;6.15;2.97;;;;;;;;;;5029813;28;20053;-64
2022/08/29 00:09:55;;;;;;;8.00;2.88;;;;;;;;;;5035129;28;20169;-64
2022/08/29 00:12:21;;;;;;;5.20;2.65;;;;;;;;;;5026866;28;20127;-64
2022/08/29 00:14:47;;;;;;;6.78;2.80;;;;;;;;;;5034517;28;20124;-63
2022/08/29 00:17:13;;;;;;;7.53;3.20;;;;;;;;;;5040501;28;20449;-63
2022/08/29 00:19:39;;;;;;;7.88;3.10;;;;;;;;;;5046807;28;20079;-63
2022/08/29 00:22:05;;;;;;;6.55;2.50;;;;;;;;;;5029382;28;20045;-64
2022/08/29 00:24:31;;;;;;;8.25;3.15;;;;;;;;;;5024787;28;20029;-64
2022/08/29 00:26:59;;;;;;;6.10;3.03;;;;;;;;;;5025823;28;20041;-64
2022/08/29 00:29:26;;;;;;;6.22;2.90;;;;;;;;;;5034449;28;20182;-64
2022/08/29 00:31:52;;;;;;;6.47;3.03;;;;;;;;;;5023237;28;20065;-64
2022/08/29 00:34:18;;;;;;;7.82;3.00;;;;;;;;;;5031462;28;20037;-64
2022/08/29 00:36:44;;;;;;;5.45;2.70;;;;;;;;;;5028562;28;20402;-63
2022/08/29 00:39:10;;;;;;;6.82;3.00;;;;;;;;;;5028854;28;20034;-64
2022/08/29 00:41:36;;;;;;;7.05;2.90;;;;;;;;;;5027591;28;20045;-63
2022/08/29 00:44:02;;;;;;;6.13;2.90;;;;;;;;;;5030093;28;20041;-64
2022/08/29 00:46:45;;;;;;;7.68;3.03;;;;;;;;;;5013781;28;20482;-63
2022/08/29 00:49:41;;;;;;;6.85;3.25;;;;;;;;;;5031809;28;20543;-64
2022/08/29 00:52:33;;;;;;;9.13;3.08;;;;;;;;;;5015809;28;20152;-64
2022/08/29 00:55:01;;;;;;;6.05;3.05;;;;;;;;;;5025676;28;20077;-64
2022/08/29 00:57:30;;;;;;;7.70;2.90;;;;;;;;;;5032551;28;20041;-64
2022/08/29 00:59:56;;;;;;;10.43;3.08;;;;;;;;;;5031012;28;20054;-63
2022/08/29 01:02:23;;;;;;;6.38;3.00;;;;;;;;;;5011678;28;20060;-64
2022/08/29 01:04:49;;;;;;;8.10;3.33;;;;;;;;;;5013813;28;20061;-64
2022/08/29 01:07:15;;;;;;;8.07;3.22;;;;;;;;;;5033105;28;20049;-64
2022/08/29 01:09:42;;;;;;;8.70;3.15;;;;;;;;;;5012923;28;20045;-64
2022/08/29 01:12:14;;;;;;;7.93;3.33;;;;;;;;;;5026982;28;20049;-64
2022/08/29 01:14:46;;;;;;;5.60;3.35;;;;;;;;;;5031197;28;20401;-64
2022/08/29 01:17:14;;;;;;;6.95;3.28;;;;;;;;;;5029299;28;20037;-64
2022/08/29 01:19:49;;;;;;;6.85;3.15;;;;;;;;;;5026395;28;20044;-64
2022/08/29 01:22:22;;;;;;;9.43;2.92;;;;;;;;;;5028201;28;20046;-64
2022/08/29 01:24:50;;;;;;;6.50;3.13;;;;;;;;;;5030988;28;20088;-64
2022/08/29 01:27:18;;;;;;;9.52;3.53;;;;;;;;;;5029780;28;20613;-64
2022/08/29 01:29:44;;;;;;;5.97;3.50;;;;;;;;;;5032673;28;20124;-64
2022/08/29 01:32:11;;;;;;;7.70;3.30;;;;;;;;;;5025173;28;20042;-63
2022/08/29 01:34:38;;;;;;;9.07;3.70;;;;;;;;;;5012320;28;20060;-64
2022/08/29 01:37:05;;;;;;;8.63;3.60;;;;;;;;;;5024973;28;20128;-64
2022/08/29 01:39:33;;;;;;;8.18;3.35;;;;;;;;;;5033977;28;20029;-63
2022/08/29 01:42:02;;;;;;;9.38;3.08;;;;;;;;;;5025720;28;20042;-64
2022/08/29 01:44:29;;;;;;;6.10;3.72;;;;;;;;;;5032418;28;20041;-63
2022/08/29 01:46:56;;;;;;;11.00;3.33;;;;;;;;;;5015377;28;20175;-64
2022/08/29 01:49:22;;;;;;;9.43;3.58;;;;;;;;;;5040918;28;20037;-63
2022/08/29 01:51:49;;;;;;;7.20;3.58;;;;;;;;;;5031868;28;20053;-64
2022/08/29 01:54:15;;;;;;;6.32;3.60;;;;;;;;;;5031741;28;20114;-64
2022/08/29 01:56:51;;;;;;;7.97;3.50;;;;;;;;;;5033524;28;20039;-63
2022/08/29 01:59:19;;;;;;;6.78;3.50;;;;;;;;;;5034126;28;20040;-64
2022/08/29 02:01:51;;;;;;;6.13;3.05;;;;;;;;;;5027228;28;20128;-64
2022/08/29 02:04:17;;;;;;;8.18;3.60;;;;;;;;;;5015679;28;20102;-63
2022/08/29 02:06:43;;;;;;;9.52;3.83;;;;;;;;;;5031452;28;20037;-64
2022/08/29 02:09:10;;;;;;;7.32;3.30;;;;;;;;;;5040653;28;20109;-63
2022/08/29 02:11:37;;;;;;;7.85;3.50;;;;;;;;;;5030065;28;20495;-63
2022/08/29 02:14:04;;;;;;;8.20;3.95;;;;;;;;;;5012549;28;20041;-64
2022/08/29 02:16:30;;;;;;;9.10;3.83;;;;;;;;;;5036046;28;20055;-63
2022/08/29 02:18:57;;;;;;;9.38;3.83;;;;;;;;;;5035182;28;20088;-64
2022/08/29 02:21:24;;;;;;;5.10;3.30;;;;;;;;;;5031389;28;20041;-63
2022/08/29 02:23:51;;;;;;;7.20;4.00;;;;;;;;;;5032741;28;20045;-63
2022/08/29 02:26:17;;;;;;;10.82;3.65;;;;;;;;;;5013926;28;20104;-64
2022/08/29 02:28:44;;;;;;;8.82;3.47;;;;;;;;;;5029905;28;20040;-64
2022/08/29 02:31:10;;;;;;;6.32;3.80;;;;;;;;;;5031949;28;20041;-64
2022/08/29 02:33:36;;;;;;;7.78;3.75;;;;;;;;;;5031414;28;20041;-63
2022/08/29 02:36:03;;;;;;;9.18;3.55;;;;;;;;;;5031690;28;20149;-64
2022/08/29 02:38:30;;;;;;;7.43;3.38;;;;;;;;;;5030405;28;20046;-63
2022/08/29 02:40:56;;;;;;;10.30;4.25;;;;;;;;;;5032658;28;20061;-64
2022/08/29 02:43:23;;;;;;;8.73;3.90;;;;;;;;;;5043816;28;20045;-64
2022/08/29 02:45:49;;;;;;;8.45;3.70;;;;;;;;;;5031995;28;20418;-64
2022/08/29 02:48:15;;;;;;;9.05;3.65;;;;;;;;;;5031288;28;20065;-63
2022/08/29 02:50:46;;;;;;;11.32;4.15;;;;;;;;;;5031208;28;20079;-64
2022/08/29 02:53:12;;;;;;;7.75;4.22;;;;;;;;;;5031191;28;20052;-63
2022/08/29 02:55:39;;;;;;;8.38;3.40;;;;;;;;;;5032850;28;20044;-64
2022/08/29 02:58:05;;;;;;;9.45;3.78;;;;;;;;;;5038758;28;20099;-64
2022/08/29 03:00:31;;;;;;;7.43;3.63;;;;;;;;;;5008005;28;20037;-64
2022/08/29 03:02:57;;;;;;;8.55;3.88;;;;;;;;;;5024898;28;20041;-63
2022/08/29 03:05:26;;;;;;;7.82;3.72;;;;;;;;;;5031564;28;20124;-64
2022/08/29 03:07:52;;;;;;;7.68;3.72;;;;;;;;;;5037107;28;20044;-63
2022/08/29 03:10:19;;;;;;;11.77;3.97;;;;;;;;;;5026245;28;20563;-64
2022/08/29 03:12:45;;;;;;;10.02;4.10;;;;;;;;;;5029004;28;20037;-64
2022/08/29 03:15:11;;;;;;;11.15;3.80;;;;;;;;;;5026790;28;20124;-64
2022/08/29 03:17:37;;;;;;;7.68;3.83;;;;;;;;;;5008097;28;20057;-64
2022/08/29 03:20:04;;;;;;;11.35;3.53;;;;;;;;;;5026228;28;20121;-64
2022/08/29 03:22:33;;;;;;;9.48;3.60;;;;;;;;;;5031879;28;20080;-64
2022/08/29 03:25:01;;;;;;;8.02;4.10;;;;;;;;;;5022349;28;20049;-64
2022/08/29 03:27:27;;;;;;;8.02;3.95;;;;;;;;;;5011734;28;20120;-64
2022/08/29 03:29:53;;;;;;;9.93;4.07;;;;;;;;;;5028523;28;20076;-64
2022/08/29 03:32:19;;;;;;;13.82;4.53;;;;;;;;;;5032067;28;20041;-64
2022/08/29 03:34:45;;;;;;;11.05;4.10;;;;;;;;;;5031908;28;20408;-64
2022/08/29 03:37:11;;;;;;;8.05;3.85;;;;;;;;;;5028523;28;20036;-64
2022/08/29 03:39:38;;;;;;;8.38;4.07;;;;;;;;;;5025775;28;20037;-64
2022/08/29 03:42:05;;;;;;;9.68;4.05;;;;;;;;;;5025392;28;20068;-64
2022/08/29 03:44:34;;;;;;;9.57;3.65;;;;;;;;;;5010390;28;20136;-64
2022/08/29 03:47:00;;;;;;;9.40;4.20;;;;;;;;;;5026402;28;20049;-64
2022/08/29 03:49:26;;;;;;;5.80;3.85;;;;;;;;;;5007913;28;20052;-64
2022/08/29 03:51:52;;;;;;;7.72;3.75;;;;;;;;;;5026210;28;20034;-64
2022/08/29 03:54:19;;;;;;;6.30;3.65;;;;;;;;;;5030770;28;20631;-63
2022/08/29 03:56:45;;;;;;;10.70;4.03;;;;;;;;;;5026916;28;20034;-64
2022/08/29 03:59:11;;;;;;;8.75;4.05;;;;;;;;;;5011020;28;20042;-64
2022/08/29 04:01:37;;;;;;;8.23;3.47;;;;;;;;;;5029298;28;20124;-63
2022/08/29 04:04:04;;;;;;;8.15;3.42;;;;;;;;;;5029769;28;20403;-64
2022/08/29 04:06:31;;;;;;;10.43;4.10;;;;;;;;;;5026034;28;20045;-64
2022/08/29 04:08:58;;;;;;;10.57;4.03;;;;;;;;;;5025416;28;20066;-63
2022/08/29 04:11:25;;;;;;;6.68;3.53;;;;;;;;;;5009230;28;20049;-64
2022/08/29 04:13:51;;;;;;;9.18;3.83;;;;;;;;;;5025523;28;20037;-64
2022/08/29 04:16:19;;;;;;;12.50;3.75;;;;;;;;;;5027880;28;20123;-64
2022/08/29 04:18:45;;;;;;;8.65;3.67;;;;;;;;;;5021165;28;20136;-64
2022/08/29 04:21:11;;;;;;;7.57;3.28;;;;;;;;;;5028039;28;20132;-64
2022/08/29 04:23:38;;;;;;;8.82;3.60;;;;;;;;;;5028198;28;20076;-63
2022/08/29 04:26:05;;;;;;;7.15;3.25;;;;;;;;;;5031948;28;20033;-64
2022/08/29 04:28:31;;;;;;;6.45;3.33;;;;;;;;;;5030033;28;20057;-64
2022/08/29 04:30:57;;;;;;;10.13;3.35;;;;;;;;;;5010588;28;20068;-64
2022/08/29 04:33:24;;;;;;;7.88;3.83;;;;;;;;;;5031913;28;20060;-64
2022/08/29 04:35:51;;;;;;;8.32;3.60;;;;;;;;;;5034142;28;20065;-64
2022/08/29 04:38:17;;;;;;;9.18;3.83;;;;;;;;;;5028282;28;20037;-64
2022/08/29 04:40:43;;;;;;;7.30;3.58;;;;;;;;;;5027577;28;20403;-64
2022/08/29 04:43:10;;;;;;;7.40;3.95;;;;;;;;;;5023276;28;20042;-64
2022/08/29 04:45:36;;;;;;;9.55;3.97;;;;;;;;;;5010184;28;20050;-64
2022/08/29 04:48:03;;;;;;;7.40;3.78;;;;;;;;;;5024531;28;20395;-64
2022/08/29 04:50:29;;;;;;;9.23;3.58;;;;;;;;;;5002876;28;20037;-63
2022/08/29 04:52:55;;;;;;;6.18;3.53;;;;;;;;;;5020536;28;20053;-64
2022/08/29 04:55:23;;;;;;;8.55;3.80;;;;;;;;;;5026731;28;20514;-63
2022/08/29 04:57:50;;;;;;;8.85;4.15;;;;;;;;;;5026727;28;20503;-64
2022/08/29 05:00:19;;;;;;;7.38;3.95;;;;;;;;;;5030219;28;20073;-64
2022/08/29 05:02:45;;;;;;;9.70;4.07;;;;;;;;;;5027915;28;20041;-64
2022/08/29 05:05:14;;;;;;;9.68;3.92;;;;;;;;;;5029270;28;20120;-64
2022/08/29 05:07:41;;;;;;;8.55;3.83;;;;;;;;;;5028318;28;20376;-64
2022/08/29 05:10:12;;;;;;;6.32;3.85;;;;;;;;;;5027616;28;20053;-64
2022/08/29 05:12:38;;;;;;;;;;;;;;;;;;5030529;28;20045;-64
2022/08/29 05:15:05;;;;;;;8.00;3.63;;;;;;;;;;5012852;28;20373;-64
2022/08/29 05:17:32;;;;;;;7.43;3.72;;;;;;;;;;5028444;28;20073;-64
2022/08/29 05:19:58;;;;;;;12.85;4.00;;;;;;;;;;5028738;28;20495;-63
2022/08/29 05:22:24;;;;;;;6.40;3.53;;;;;;;;;;5031235;28;20056;-64
2022/08/29 05:24:50;;;;;;;6.45;3.17;;;;;;;;;;5035112;28;20041;-64
2022/08/29 05:27:19;;;;;;;10.07;4.10;;;;;;;;;;5029735;28;20037;-64
2022/08/29 05:29:46;;;;;;;7.95;3.72;;;;;;;;;;5029420;28;20116;-64
2022/08/29 05:32:13;;;;;;;8.25;3.72;;;;;;;;;;5032424;28;20052;-64
2022/08/29 05:34:40;;;;;;;6.97;3.67;;;;;;;;;;5029681;28;20406;-64
2022/08/29 05:37:07;;;;;;;8.32;3.88;;;;;;;;;;5029725;28;20045;-64
2022/08/29 05:39:34;;;;;;;5.97;3.38;;;;;;;;;;5028998;28;20037;-64
2022/08/29 05:42:00;;;;;;;9.15;3.70;;;;;;;;;;5029539;28;20495;-64
2022/08/29 05:44:27;;;;;;;7.03;3.78;;;;;;;;;;5026875;28;20048;-64
2022/08/29 05:46:53;;;;;;;9.20;4.07;;;;;;;;;;5033505;28;20104;-64
2022/08/29 05:49:20;;;;;;;10.02;3.60;;;;;;;;;;5026052;28;20045;-64
2022/08/29 05:51:46;;;;;;;9.77;4.18;;;;;;;;;;5023489;28;20037;-64
2022/08/29 05:54:13;;;;;;;9.18;3.97;;;;;;;;;;5026690;28;20535;-64
2022/08/29 05:56:39;;;;;;;8.00;3.95;;;;;;;;;;5031163;28;20040;-65
2022/08/29 05:59:05;;;;;;;10.95;4.10;;;;;;;;;;5027103;28;20045;-64
2022/08/29 06:01:32;;;;;;;8.13;4.18;;;;;;;;;;5013506;28;20038;-64
2022/08/29 06:03:59;;;;;;;7.43;3.45;;;;;;;;;;5022151;28;20041;-64
2022/08/29 06:06:27;;;;;;;9.05;4.00;;;;;;;;;;5031353;28;20037;-64
2022/08/29 06:08:53;;;;;;;7.05;3.45;;;;;;;;;;5028956;28;20176;-64
2022/08/29 06:11:24;;;;;;;7.10;3.70;;;;;;;;;;5028600;28;20037;-64
2022/08/29 06:13:50;;;;;;;11.27;4.05;;;;;;;;;;5032765;28;20116;-64
2022/08/29 06:16:18;;;;;;;8.23;3.60;;;;;;;;;;5030516;28;20063;-64
2022/08/29 06:18:44;;;;;;;9.13;3.80;;;;;;;;;;5029624;28;20037;-64
2022/08/29 06:21:10;;;;;;;10.27;3.88;;;;;;;;;;5028622;28;20128;-64
2022/08/29 06:23:38;;;;;;;7.53;4.05;;;;;;;;;;5031544;28;20491;-64
2022/08/29 06:26:04;;;;;;;8.55;3.42;;;;;;;;;;5032996;28;20041;-64
2022/08/29 06:28:31;;;;;;;11.48;4.05;;;;;;;;;;5029691;28;20460;-64
2022/08/29 06:31:04;;;;;;;11.18;3.50;;;;;;;;;;5024136;28;20037;-64
2022/08/29 06:33:30;;;;;;;8.75;3.70;;;;;;;;;;5025821;28;20046;-64
2022/08/29 06:35:56;;;;;;;7.30;3.70;;;;;;;;;;5032187;28;20463;-64
2022/08/29 06:38:22;;;;;;;7.40;3.65;;;;;;;;;;5012802;28;20037;-64
2022/08/29 06:40:48;;;;;;;9.35;3.63;;;;;;;;;;5027355;28;20033;-64
2022/08/29 06:43:14;;;;;;;9.57;3.70;;;;;;;;;;5026184;28;20450;-64
2022/08/29 06:45:42;;;;;;;6.03;3.63;;;;;;;;;;5026317;28;20044;-64
2022/08/29 06:48:08;;;;;;;7.45;3.60;;;;;;;;;;5006567;28;20125;-64
2022/08/29 06:50:38;;;;;;;9.73;3.60;;;;;;;;;;5021345;28;20075;-64
2022/08/29 06:53:05;;;;;;;7.57;3.70;;;;;;;;;;5016868;28;20050;-64
2022/08/29 06:55:31;;;;;;;8.68;3.83;;;;;;;;;;5020326;28;20037;-64
2022/08/29 06:57:57;;;;;;;8.88;3.42;;;;;;;;;;5017696;28;20041;-65
2022/08/29 07:00:23;;;;;;;7.75;3.45;;;;;;;;;;5004126;28;20049;-65
2022/08/29 07:02:50;;;;;;;7.47;3.70;;;;;;;;;;5000214;28;20173;-65
2022/08/29 07:05:16;;;;;;;9.07;3.97;;;;;;;;;;5025130;28;20056;-65
2022/08/29 07:07:42;;;;;;;7.65;3.80;;;;;;;;;;5021696;28;20479;-65
2022/08/29 07:10:11;;;;;;;10.30;4.28;;;;;;;;;;5008377;28;20526;-65
2022/08/29 07:12:38;;;;;;;9.57;3.42;;;;;;;;;;5013051;28;20049;-66
2022/08/29 07:15:04;;;;;;;8.00;3.70;;;;;;;;;;5031851;28;20052;-66
2022/08/29 07:17:31;;;;;;;6.75;3.95;;;;;;;;;;5028432;28;20041;-65
2022/08/29 07:19:57;;;;;;;8.38;3.40;;;;;;;;;;5019699;28;20053;-65
2022/08/29 07:22:25;;;;;;;9.80;3.50;;;;;;;;;;5029094;28;20052;-65
2022/08/29 07:24:51;;;;;;;11.38;3.80;;;;;;;;;;5027576;28;20453;-66
2022/08/29 07:27:17;;;;;;;10.50;3.58;;;;;;;;;;5023770;28;20064;-66
2022/08/29 07:29:43;;;;;;;6.20;3.50;;;;;;;;;;5030873;28;20487;-66
2022/08/29 07:32:09;;;;;;;7.22;3.53;;;;;;;;;;5028559;28;20041;-66
2022/08/29 07:34:35;;;;;;;9.18;3.60;;;;;;;;;;5029737;28;20601;-65
2022/08/29 07:37:02;;;;;;;7.72;3.25;;;;;;;;;;5032550;28;20069;-65
2022/08/29 07:39:28;;;;;;;7.03;3.28;;;;;;;;;;5031791;28;20049;-65
2022/08/29 07:41:54;;;;;;;9.68;3.38;;;;;;;;;;5026300;28;20049;-66
2022/08/29 07:44:20;;;;;;;7.68;3.38;;;;;;;;;;5031967;28;20384;-66
2022/08/29 07:46:46;;;;;;;7.53;3.38;;;;;;;;;;5031643;28;20079;-65
2022/08/29 07:49:12;;;;;;;8.77;3.67;;;;;;;;;;5030862;28;20083;-65
2022/08/29 07:51:39;;;;;;;7.95;3.08;;;;;;;;;;5021232;28;20495;-65
2022/08/29 07:54:05;;;;;;;9.02;3.28;;;;;;;;;;5022073;28;20538;-65
2022/08/29 07:56:33;;;;;;;8.52;3.60;;;;;;;;;;5028453;28;20517;-66
2022/08/29 07:59:00;;;;;;;8.25;3.10;;;;;;;;;;5030638;28;20129;-65
2022/08/29 08:01:26;;;;;;;8.05;3.05;;;;;;;;;;5037161;28;20045;-65
2022/08/29 08:03:52;;;;;;;8.70;3.25;;;;;;;;;;5030728;28;20507;-65
2022/08/29 08:06:20;;;;;;;8.05;3.08;;;;;;;;;;5029697;28;20513;-66
2022/08/29 08:08:46;;;;;;;7.88;2.90;;;;;;;;;;5015263;28;20037;-65
2022/08/29 08:11:13;;;;;;;11.35;3.35;;;;;;;;;;5026247;28;20042;-65
2022/08/29 08:13:39;;;;;;;7.00;3.30;;;;;;;;;;5021875;28;20037;-65
2022/08/29 08:16:07;;;;;;;8.65;2.90;;;;;;;;;;5025506;28;20447;-65
2022/08/29 08:18:34;;;;;;;6.15;3.15;;;;;;;;;;5019992;28;20037;-66
2022/08/29 08:21:00;;;;;;;8.60;2.97;;;;;;;;;;5008964;28;20051;-65
2022/08/29 08:23:26;;;;;;;8.73;3.15;;;;;;;;;;5026623;28;20442;-65
2022/08/29 08:25:52;;;;;;;8.77;2.60;;;;;;;;;;5031497;28;20037;-65
2022/08/29 08:28:18;;;;;;;7.13;2.85;;;;;;;;;;5030718;28;20090;-65
2022/08/29 08:30:44;;;;;;;5.55;2.63;;;;;;;;;;5030832;28;20029;-65
2022/08/29 08:33:10;;;;;;;4.30;2.22;;;;;;;;;;5031311;28;20041;-65
2022/08/29 08:35:37;;;;;;;7.45;2.80;;;;;;;;;;5030476;28;20089;-65
2022/08/29 08:38:04;;;;;;;6.63;2.28;;;;;;;;;;5013341;28;20053;-65
2022/08/29 08:40:30;;;;;;;6.60;2.95;;;;;;;;;;5011860;28;20391;-65
2022/08/29 08:43:00;;;;;;;7.15;2.25;;;;;;;;;;5022983;28;20041;-65
2022/08/29 08:45:32;;;;;;;7.40;2.55;;;;;;;;;;5011610;28;20045;-65
2022/08/29 08:48:06;;;;;;;10.52;2.85;;;;;;;;;;5031082;28;20045;-65
2022/08/29 08:50:38;;;;;;;7.60;2.50;;;;;;;;;;5030622;28;20120;-65
2022/08/29 08:53:20;;;;;;;10.75;2.70;;;;;;;;;;5012687;28;20049;-65
2022/08/29 08:55:48;;;;;;;7.32;2.47;;;;;;;;;;5028776;28;20120;-65
2022/08/29 08:58:37;;;;;;;6.55;2.60;;;;;;;;;;5031381;28;20034;-65
2022/08/29 09:01:09;;;;;;;10.18;2.67;;;;;;;;;;5002449;28;20048;-65
2022/08/29 09:03:48;;;;;;;8.90;2.70;;;;;;;;;;5023655;28;20462;-65
2022/08/29 09:06:20;;;;;;;8.38;3.08;;;;;;;;;;5032930;28;20088;-65
2022/08/29 09:09:00;;;;;;;7.38;2.65;;;;;;;;;;5034980;28;20037;-65
2022/08/29 09:11:36;;;;;;;6.78;2.83;;;;;;;;;;5033085;28;20045;-65
2022/08/29 09:14:07;;;;;;;8.15;2.65;;;;;;;;;;5034985;28;20507;-65
2022/08/29 09:16:40;;;;;;;7.50;2.80;;;;;;;;;;5035425;28;20125;-65
2022/08/29 09:19:11;;;;;;;9.52;3.33;;;;;;;;;;5034670;28;20042;-65
2022/08/29 09:21:43;;;;;;;9.38;2.83;;;;;;;;;;5032659;28;20466;-65
2022/08/29 09:24:11;;;;;;;9.65;3.20;;;;;;;;;;5015464;28;20077;-65
2022/08/29 09:26:37;;;;;;;6.43;2.50;;;;;;;;;;5017041;28;20053;-65
2022/08/29 09:29:08;;;;;;;9.77;3.15;;;;;;;;;;5033996;28;20044;-65
2022/08/29 09:31:34;;;;;;;9.73;3.30;;;;;;;;;;5033307;28;20076;-65
2022/08/29 09:34:06;;;;;;;7.65;2.88;;;;;;;;;;5034376;28;20084;-65
2022/08/29 09:37:03;;;;;;;8.02;2.80;;;;;;;;;;5017046;28;20533;-65
2022/08/29 09:39:32;;;;;;;9.73;3.05;;;;;;;;;;5021686;28;20045;-65
2022/08/29 09:42:13;;;;;;;9.55;3.35;;;;;;;;;;5031661;28;20518;-65
2022/08/29 09:44:40;;;;;;;5.68;2.75;;;;;;;;;;5027714;28;20515;-65
2022/08/29 09:47:06;;;;;;;9.90;3.15;;;;;;;;;;5002045;28;20034;-65
2022/08/29 09:49:33;;;;;;;9.35;2.83;;;;;;;;;;5016367;28;20045;-65
2022/08/29 09:52:09;;;;;;;6.93;3.10;;;;;;;;;;5032306;28;20041;-65
2022/08/29 09:54:36;;;;;;;6.60;3.53;;;;;;;;;;5016507;28;20144;-65
2022/08/29 09:57:09;;;;;;;9.25;3.33;;;;;;;;;;5016721;28;20087;-65
2022/08/29 09:59:37;;;;;;;7.05;3.35;;;;;;;;;;5033767;28;20044;-65
2022/08/29 10:02:16;;;;;;;8.73;3.40;;;;;;;;;;5031958;28;20049;-65
2022/08/29 10:04:44;;;;;;;7.70;3.08;;;;;;;;;;5032864;28;20041;-65
2022/08/29 10:07:22;;;;;;;10.35;3.40;;;;;;;;;;5034202;28;20522;-64
2022/08/29 10:10:00;;;;;;;11.02;3.42;;;;;;;;;;5033818;28;20077;-64
2022/08/29 10:12:40;;;;;;;7.63;3.22;;;;;;;;;;5013831;28;20519;-64
2022/08/29 10:15:26;;;;;;;7.65;3.10;;;;;;;;;;5015233;28;20116;-64
2022/08/29 10:20:51;;;;;;;6.97;2.73;;;;;;;;;;5032244;28;20092;-64
2022/08/29 10:23:26;;;;;;;9.02;3.10;;;;;;;;;;5030967;28;20288;-64
2022/08/29 10:25:53;;;;;;;10.07;3.28;;;;;;;;;;5033694;28;20037;-64
2022/08/29 10:28:40;;;;;;;9.27;3.35;;;;;;;;;;5033622;28;20049;-64
2022/08/29 10:31:11;;;;;;;7.63;3.55;;;;;;;;;;5031360;28;20048;-64
2022/08/29 10:33:51;;;;;;;10.50;3.15;;;;;;;;;;5024715;28;20033;-64
2022/08/29 10:36:25;;;;;;;5.53;2.87;;;;;;;;;;5033699;28;20423;-64
2022/08/29 10:38:56;;;;;;;7.75;3.08;;;;;;;;;;5033313;28;20080;-64
2022/08/29 10:41:28;;;;;;;8.30;3.85;;;;;;;;;;5031696;28;20033;-63
2022/08/29 10:43:57;;;;;;;8.55;3.20;;;;;;;;;;5032740;28;20099;-64
2022/08/29 10:46:31;;;;;;;6.35;2.63;;;;;;;;;;5033776;28;20084;-63
2022/08/29 10:49:00;;;;;;;7.88;3.15;;;;;;;;;;5032779;28;20052;-64
2022/08/29 10:51:45;;;;;;;8.68;2.65;;;;;;;;;;5031571;28;20044;-63
2022/08/29 10:54:20;;;;;;;8.98;3.08;;;;;;;;;;5032610;28;20515;-63
2022/08/29 10:56:47;;;;;;;8.50;2.92;;;;;;;;;;5033525;28;20474;-64
2022/08/29 10:59:41;;;;;;;5.65;2.50;;;;;;;;;;5033046;28;20092;-64
2022/08/29 11:02:10;;;;;;;7.35;3.22;;;;;;;;;;5031305;28;20094;-64
2022/08/29 11:04:49;;;;;;;8.60;3.10;;;;;;;;;;5032888;28;20041;-64
2022/08/29 11:07:34;;;;;;;7.80;2.75;;;;;;;;;;5032942;28;20049;-64
2022/08/29 11:10:02;;;;;;;6.63;2.72;;;;;;;;;;5033325;28;20037;-64
2022/08/29 11:12:44;;;;;;;10.70;3.10;;;;;;;;;;5031089;28;20454;-63
2022/08/29 11:15:27;;;;;;;11.05;3.40;;;;;;;;;;5032084;28;20490;-64
2022/08/29 11:18:00;;;;;;;12.88;3.17;;;;;;;;;;5032891;28;20044;-64
2022/08/29 11:20:30;;;;;;;8.45;3.30;;;;;;;;;;5032432;28;20038;-64
2022/08/29 11:23:00;;;;;;;8.82;3.05;;;;;;;;;;5030588;28;20060;-64
2022/08/29 11:25:26;;;;;;;8.20;3.25;;;;;;;;;;5032153;28;20041;-64
2022/08/29 11:27:57;;;;;;;9.77;3.10;;;;;;;;;;5032499;28;20048;-64
2022/08/29 11:30:28;;;;;;;6.60;3.05;;;;;;;;;;5032529;28;20044;-64
2022/08/29 11:33:04;;;;;;;8.63;3.00;;;;;;;;;;5030156;28;20049;-64
2022/08/29 11:35:43;;;;;;;7.78;2.85;;;;;;;;;;5032516;28;20128;-64
2022/08/29 11:38:12;;;;;;;10.35;3.38;;;;;;;;;;5032581;28;20371;-64
2022/08/29 11:40:41;;;;;;;8.40;2.78;;;;;;;;;;5013059;28;20115;-64
2022/08/29 11:43:09;;;;;;;9.95;2.97;;;;;;;;;;5029706;28;20403;-64
2022/08/29 11:45:40;;;;;;;6.72;3.00;;;;;;;;;;5032450;28;20511;-64
2022/08/29 11:48:18;;;;;;;6.80;2.60;;;;;;;;;;5031824;28;20045;-64
2022/08/29 11:50:44;;;;;;;10.60;3.15;;;;;;;;;;5023132;28;20554;-64
2022/08/29 11:53:10;;;;;;;8.35;3.92;;;;;;;;;;5028656;28;20045;-64
2022/08/29 11:55:37;;;;;;;9.40;3.47;;;;;;;;;;5031430;28;20044;-64
2022/08/29 11:58:05;;;;;;;10.77;3.67;;;;;;;;;;5032193;28;20061;-64
2022/08/29 12:00:40;;;;;;;10.07;3.75;;;;;;;;;;5030534;28;20491;-64
2022/08/29 12:03:26;;;;;;;7.30;3.42;;;;;;;;;;5013554;28;20053;-64
2022/08/29 12:05:56;;;;;;;8.82;3.90;;;;;;;;;;5011711;28;20048;-64
2022/08/29 12:08:30;;;;;;;8.57;4.25;;;;;;;;;;5012311;28;20050;-64
2022/08/29 12:10:56;;;;;;;8.88;3.78;;;;;;;;;;5022682;28;20048;-64
2022/08/29 12:13:52;;;;;;;11.18;3.90;;;;;;;;;;5012885;28;20053;-64
2022/08/29 12:16:22;;;;;;;8.57;3.83;;;;;;;;;;5022699;28;20053;-64
2022/08/29 12:18:50;;;;;;;14.10;3.63;;;;;;;;;;5031596;28;20049;-64
2022/08/29 12:21:35;;;;;;;10.40;3.10;;;;;;;;;;5030077;28;20091;-64
2022/08/29 12:24:02;;;;;;;6.53;2.60;;;;;;;;;;5031630;28;20397;-64
2022/08/29 12:26:40;;;;;;;6.30;2.75;;;;;;;;;;5031782;28;20518;-64
2022/08/29 12:29:06;;;;;;;4.53;2.70;;;;;;;;;;5031441;28;20069;-64
2022/08/29 12:31:41;;;;;;;8.93;3.05;;;;;;;;;;5029551;28;20582;-64
2022/08/29 12:34:07;;;;;;;8.68;3.10;;;;;;;;;;5031215;28;20037;-64
2022/08/29 12:36:52;;;;;;;7.00;3.00;;;;;;;;;;5032015;28;20511;-64
2022/08/29 12:39:21;;;;;;;7.43;3.05;;;;;;;;;;5004008;28;20046;-64
2022/08/29 12:41:53;;;;;;;8.57;3.13;;;;;;;;;;5028174;28;20049;-64
2022/08/29 12:44:24;;;;;;;11.10;3.35;;;;;;;;;;5013938;28;20060;-64
2022/08/29 12:46:52;;;;;;;6.68;2.92;;;;;;;;;;5031442;28;20049;-64
2022/08/29 12:49:25;;;;;;;10.00;3.53;;;;;;;;;;5031316;28;20112;-64
2022/08/29 12:52:00;;;;;;;12.45;3.53;;;;;;;;;;5023208;28;20038;-64
2022/08/29 12:54:31;;;;;;;8.70;2.95;;;;;;;;;;5030202;28;20068;-64
2022/08/29 12:56:57;;;;;;;9.63;2.63;;;;;;;;;;5005386;28;20054;-64
2022/08/29 12:59:23;;;;;;;12.57;3.50;;;;;;;;;;5031298;28;20124;-64
2022/08/29 13:01:50;;;;;;;6.72;3.10;;;;;;;;;;5011586;28;20049;-64
2022/08/29 13:04:18;;;;;;;6.82;3.17;;;;;;;;;;5031169;28;20052;-64
2022/08/29 13:06:59;;;;;;;10.98;3.30;;;;;;;;;;5031476;28;20461;-64
2022/08/29 13:09:29;;;;;;;7.72;3.40;;;;;;;;;;5013598;28;20041;-64
2022/08/29 13:11:55;;;;;;;;;;;;;;;;;;5026979;28;20580;-64
2022/08/29 13:14:22;;;;;;;9.23;3.08;;;;;;;;;;5031230;28;19917;-64
2022/08/29 13:16:49;;;;;;;9.95;3.10;;;;;;;;;;5031021;28;20053;-64
2022/08/29 13:19:20;;;;;;;6.97;2.72;;;;;;;;;;5030563;28;20045;-64
2022/08/29 13:21:46;;;;;;;8.13;2.90;;;;;;;;;;5028783;28;20087;-64
2022/08/29 13:24:16;;;;;;;8.88;3.17;;;;;;;;;;5030155;28;20041;-64
2022/08/29 13:26:49;;;;;;;7.32;2.90;;;;;;;;;;5013467;28;20041;-64
2022/08/29 13:29:25;;;;;;;7.55;2.83;;;;;;;;;;5030983;28;20128;-64
2022/08/29 13:32:10;;;;;;;8.52;2.67;;;;;;;;;;5029250;28;20491;-64
2022/08/29 13:34:36;;;;;;;8.57;2.70;;;;;;;;;;5030854;28;20041;-63
2022/08/29 13:37:09;;;;;;;10.55;3.90;;;;;;;;;;5031026;28;20038;-64
2022/08/29 13:39:35;;;;;;;7.70;3.33;;;;;;;;;;5030942;28;20542;-64
2022/08/29 13:42:01;;;;;;;6.18;2.92;;;;;;;;;;5029176;28;20513;-64
2022/08/29 13:44:48;;;;;;;6.07;2.75;;;;;;;;;;5030229;28;20041;-64
2022/08/29 13:47:16;;;;;;;9.30;3.33;;;;;;;;;;5030381;28;20049;-64
2022/08/29 13:49:42;;;;;;;8.57;3.47;;;;;;;;;;5030310;28;20037;-64
2022/08/29 13:52:11;;;;;;;8.25;3.20;;;;;;;;;;5032282;28;20103;-64
2022/08/29 13:54:41;;;;;;;8.73;3.17;;;;;;;;;;5034427;28;20092;-64
2022/08/29 13:57:11;;;;;;;12.48;3.17;;;;;;;;;;5033947;28;20494;-64
2022/08/29 13:59:38;;;;;;;8.63;3.17;;;;;;;;;;5034114;28;20519;-64
2022/08/29 14:02:04;;;;;;;7.20;3.17;;;;;;;;;;5032615;28;20072;-64
2022/08/29 14:04:30;;;;;;;4.43;2.80;;;;;;;;;;5034248;28;20037;-64
2022/08/29 14:06:56;;;;;;;6.88;2.92;;;;;;;;;;5034301;28;20124;-64
2022/08/29 14:09:26;;;;;;;7.15;3.15;;;;;;;;;;5033116;28;20037;-64
2022/08/29 14:11:52;;;;;;;7.85;3.20;;;;;;;;;;5031887;28;20045;-64
2022/08/29 14:14:18;;;;;;;6.25;2.78;;;;;;;;;;5033595;28;20084;-64
2022/08/29 14:16:44;;;;;;;9.25;2.78;;;;;;;;;;5034323;28;20091;-64
2022/08/29 14:19:11;;;;;;;6.32;2.80;;;;;;;;;;5023999;28;20045;-64
2022/08/29 14:21:36;;;;;;;4.95;2.63;;;;;;;;;;5025226;28;20037;-64
2022/08/29 14:24:03;;;;;;;6.50;2.97;;;;;;;;;;5008051;28;20045;-64
2022/08/29 14:26:29;;;;;;;8.75;2.95;;;;;;;;;;5015350;28;20046;-64
2022/08/29 14:28:55;;;;;;;5.25;2.80;;;;;;;;;;5005649;28;20077;-65
2022/08/29 14:31:21;;;;;;;7.65;3.00;;;;;;;;;;5026271;28;20041;-64
2022/08/29 14:33:47;;;;;;;7.35;2.80;;;;;;;;;;5011567;28;20038;-62
2022/08/29 14:36:13;;;;;;;5.47;2.97;;;;;;;;;;5032986;28;20033;-62
2022/08/29 14:38:39;;;;;;;8.07;2.90;;;;;;;;;;5024772;28;20033;-63
2022/08/29 14:41:05;;;;;;;5.85;2.53;;;;;;;;;;5030340;28;20030;-62
2022/08/29 14:43:31;;;;;;;4.78;2.55;;;;;;;;;;5031292;28;20045;-62
2022/08/29 14:45:57;;;;;;;6.75;2.45;;;;;;;;;;5026744;28;20042;-62
2022/08/29 14:48:23;;;;;;;6.70;2.83;;;;;;;;;;5024621;28;20045;-62
2022/08/29 14:50:49;;;;;;;6.00;2.38;;;;;;;;;;5029537;28;20045;-62
2022/08/29 14:53:15;;;;;;;5.88;2.13;;;;;;;;;;5011610;28;20430;-63